createdAt,value
2017-11-23T00:00:52.964Z,99495.94
2017-11-23T00:01:55.424Z,99501.83
2017-11-23T00:02:57.903Z,99500.81
2017-11-23T00:04:00.385Z,99502.41
2017-11-23T00:05:02.886Z,99511.81
2017-11-23T00:06:05.358Z,99513.36
2017-11-23T00:07:07.826Z,99516.11
2017-11-23T00:08:10.308Z,99512.16
2017-11-23T00:09:12.791Z,99521.61
2017-11-23T00:10:15.265Z,99514.52
2017-11-23T00:11:17.723Z,99512.16
2017-11-23T00:12:20.186Z,99496.81
2017-11-23T00:13:22.658Z,99503.28
2017-11-23T00:14:25.134Z,99488.92
2017-11-23T00:15:27.616Z,99487.55
2017-11-23T00:16:30.091Z,99497.21
2017-11-23T00:17:32.566Z,99490.73
2017-11-23T00:18:35.035Z,99490.16
2017-11-23T00:19:37.514Z,99487.41
2017-11-23T00:20:40.002Z,99498.41
2017-11-23T00:21:42.481Z,99493.89
2017-11-23T00:22:44.952Z,99479.73
2017-11-23T00:23:47.504Z,99478.77
2017-11-23T00:24:49.978Z,99481.29
2017-11-23T00:25:52.470Z,99496.23
2017-11-23T00:26:54.947Z,99486.22
2017-11-23T00:27:57.403Z,99484.44
2017-11-23T00:28:59.862Z,99486.97
2017-11-23T00:30:02.666Z,99485.59
2017-11-23T00:31:05.143Z,99490.30
2017-11-23T00:32:07.614Z,99479.87
2017-11-23T00:33:10.087Z,99478.09
2017-11-23T00:34:12.553Z,99480.05
2017-11-23T00:35:15.017Z,99482.62
2017-11-23T00:36:17.493Z,99485.94
2017-11-23T00:37:19.982Z,99489.89
2017-11-23T00:38:22.458Z,99481.87
2017-11-23T00:39:24.939Z,99479.34
2017-11-23T00:40:27.427Z,99475.04
2017-11-23T00:41:29.925Z,99468.56
2017-11-23T00:42:32.401Z,99464.44
2017-11-23T00:43:34.860Z,99462.48
2017-11-23T00:44:37.332Z,99464.44
2017-11-23T00:45:39.798Z,99474.29
2017-11-23T00:46:42.306Z,99474.86
2017-11-23T00:47:44.777Z,99476.81
2017-11-23T00:48:47.242Z,99486.27
2017-11-23T00:49:49.716Z,99481.73
2017-11-23T00:50:52.191Z,99480.98
2017-11-23T00:51:54.664Z,99485.69
2017-11-23T00:52:57.137Z,99482.76
2017-11-23T00:53:59.614Z,99477.78
2017-11-23T00:55:02.067Z,99481.91
2017-11-23T00:56:04.548Z,99476.98
2017-11-23T00:57:07.047Z,99481.11
2017-11-23T00:58:09.507Z,99478.23
2017-11-23T00:59:11.980Z,99482.98
2017-11-23T01:00:14.473Z,99471.41
2017-11-23T01:01:16.941Z,99472.61
2017-11-23T01:02:19.438Z,99473.41
2017-11-23T01:03:21.933Z,99473.41
2017-11-23T01:04:24.410Z,99476.95
2017-11-23T01:05:26.924Z,99475.75
2017-11-23T01:06:29.420Z,99474.16
2017-11-23T01:07:31.928Z,99475.31
2017-11-23T01:08:34.388Z,99477.03
2017-11-23T01:09:36.875Z,99476.23
2017-11-23T01:10:39.331Z,99473.71
2017-11-23T01:11:41.824Z,99466.61
2017-11-23T01:12:44.318Z,99470.91
2017-11-23T01:13:46.781Z,99465.59
2017-11-23T01:14:49.252Z,99471.09
2017-11-23T01:15:51.731Z,99466.56
2017-11-23T01:16:54.192Z,99462.39
2017-11-23T01:17:56.708Z,99460.22
2017-11-23T01:18:59.168Z,99459.42
2017-11-23T01:20:01.652Z,99464.70
2017-11-23T01:21:04.114Z,99459.37
2017-11-23T01:23:38.729Z,99468.55
2017-11-23T01:24:41.203Z,99461.28
2017-11-23T01:25:43.678Z,99462.41
2017-11-23T01:26:46.164Z,99471.62
2017-11-23T01:27:48.635Z,99463.16
2017-11-23T01:28:51.120Z,99463.16
2017-11-23T01:29:53.606Z,99472.20
2017-11-23T01:30:56.091Z,99461.16
2017-11-23T01:31:58.568Z,99456.63
2017-11-23T01:33:01.023Z,99461.33
2017-11-23T01:34:03.517Z,99458.98
2017-11-23T01:35:05.972Z,99459.73
2017-11-23T01:36:08.446Z,99451.88
2017-11-23T01:37:10.905Z,99445.19
2017-11-23T01:38:13.374Z,99447.54
2017-11-23T01:39:15.854Z,99444.79
2017-11-23T01:40:18.319Z,99443.02
2017-11-23T01:41:20.787Z,99440.05
2017-11-23T01:42:23.262Z,99439.64
2017-11-23T01:43:25.720Z,99439.25
2017-11-23T01:44:28.199Z,99438.05
2017-11-23T01:45:30.661Z,99430.20
2017-11-23T01:46:33.134Z,99429.80
2017-11-23T01:47:35.604Z,99426.25
2017-11-23T01:48:38.061Z,99429.80
2017-11-23T01:49:40.560Z,99428.83
2017-11-23T01:50:43.023Z,99426.08
2017-11-23T01:51:45.506Z,99424.34
2017-11-23T01:52:47.978Z,99420.05
2017-11-23T01:53:50.432Z,99425.81
2017-11-23T01:54:52.922Z,99433.31
2017-11-23T01:55:55.379Z,99431.36
2017-11-23T01:56:57.857Z,99435.88
2017-11-23T01:58:00.319Z,99432.73
2017-11-23T01:59:02.812Z,99431.58
2017-11-23T02:00:05.292Z,99431.58
2017-11-23T02:01:07.754Z,99438.31
2017-11-23T02:02:10.212Z,99434.98
2017-11-23T02:03:12.687Z,99430.28
2017-11-23T02:04:15.184Z,99438.00
2017-11-23T02:05:17.675Z,99433.08
2017-11-23T02:06:20.153Z,99425.81
2017-11-23T02:07:22.625Z,99424.44
2017-11-23T02:08:25.093Z,99419.51
2017-11-23T02:09:27.561Z,99412.46
2017-11-23T02:10:30.044Z,99418.53
2017-11-23T02:11:32.522Z,99422.36
2017-11-23T02:12:34.997Z,99420.19
2017-11-23T02:13:37.461Z,99421.73
2017-11-23T02:14:39.916Z,99411.09
2017-11-23T02:15:42.400Z,99418.14
2017-11-23T02:16:44.860Z,99418.89
2017-11-23T02:17:47.330Z,99412.60
2017-11-23T02:18:49.788Z,99403.91
2017-11-23T02:19:52.260Z,99403.69
2017-11-23T02:20:54.744Z,99398.59
2017-11-23T02:21:57.222Z,99404.88
2017-11-23T02:22:59.689Z,99397.39
2017-11-23T02:24:02.158Z,99401.69
2017-11-23T02:25:04.624Z,99403.28
2017-11-23T02:26:07.116Z,99402.66
2017-11-23T02:27:09.585Z,99403.64
2017-11-23T02:28:12.062Z,99392.81
2017-11-23T02:29:14.537Z,99400.09
2017-11-23T02:30:17.005Z,99388.47
2017-11-23T02:31:19.511Z,99378.45
2017-11-23T02:32:21.987Z,99380.41
2017-11-23T02:33:24.470Z,99385.10
2017-11-23T02:34:26.938Z,99381.38
2017-11-23T02:35:29.426Z,99376.06
2017-11-23T02:36:32.039Z,99365.06
2017-11-23T02:37:34.514Z,99362.49
2017-11-23T02:38:36.975Z,99359.74
2017-11-23T02:39:39.431Z,99346.95
2017-11-23T02:40:41.920Z,99339.45
2017-11-23T02:41:44.404Z,99339.45
2017-11-23T02:42:46.876Z,99337.86
2017-11-23T02:43:49.342Z,99335.69
2017-11-23T02:44:51.827Z,99341.00
2017-11-23T02:45:54.292Z,99337.45
2017-11-23T02:46:56.783Z,99333.73
2017-11-23T02:47:59.277Z,99345.87
2017-11-23T02:49:01.756Z,99342.73
2017-11-23T02:50:04.235Z,99338.03
2017-11-23T02:51:06.711Z,99339.01
2017-11-23T02:52:09.207Z,99332.14
2017-11-23T02:53:11.671Z,99333.11
2017-11-23T02:54:14.141Z,99332.72
2017-11-23T02:55:16.616Z,99333.69
2017-11-23T02:56:19.095Z,99336.03
2017-11-23T02:57:21.588Z,99328.37
2017-11-23T02:58:24.043Z,99328.15
2017-11-23T02:59:26.505Z,99325.58
2017-11-23T03:00:28.967Z,99325.97
2017-11-23T03:01:31.428Z,99331.08
2017-11-23T03:02:33.921Z,99331.25
2017-11-23T03:03:36.407Z,99330.23
2017-11-23T03:04:38.867Z,99330.63
2017-11-23T03:05:41.333Z,99334.93
2017-11-23T03:06:43.807Z,99335.11
2017-11-23T03:07:46.288Z,99342.20
2017-11-23T03:08:48.763Z,99346.50
2017-11-23T03:09:51.241Z,99353.37
2017-11-23T03:10:53.704Z,99357.72
2017-11-23T03:11:56.183Z,99356.12
2017-11-23T03:12:58.700Z,99363.96
2017-11-23T03:14:01.190Z,99367.91
2017-11-23T03:15:03.651Z,99363.39
2017-11-23T03:16:06.125Z,99355.72
2017-11-23T03:17:08.594Z,99348.84
2017-11-23T03:18:11.098Z,99354.34
2017-11-23T03:19:13.606Z,99338.43
2017-11-23T03:20:16.064Z,99343.13
2017-11-23T03:21:18.525Z,99340.16
2017-11-23T03:22:20.988Z,99339.36
2017-11-23T03:23:23.494Z,99346.80
2017-11-23T03:24:25.957Z,99342.86
2017-11-23T03:25:28.439Z,99335.73
2017-11-23T03:26:30.913Z,99337.69
2017-11-23T03:27:33.368Z,99338.84
2017-11-23T03:28:35.869Z,99324.70
2017-11-23T03:29:38.347Z,99327.05
2017-11-23T03:30:40.805Z,99317.78
2017-11-23T03:31:43.275Z,99313.09
2017-11-23T03:32:45.752Z,99313.84
2017-11-23T03:33:48.240Z,99308.92
2017-11-23T03:34:50.710Z,99310.08
2017-11-23T03:35:53.266Z,99315.97
2017-11-23T03:36:55.725Z,99318.31
2017-11-23T03:37:58.182Z,99318.09
2017-11-23T03:39:00.676Z,99319.47
2017-11-23T03:40:03.150Z,99314.15
2017-11-23T03:41:05.615Z,99323.37
2017-11-23T03:42:08.097Z,99323.55
2017-11-23T03:43:10.552Z,99324.74
2017-11-23T03:44:13.050Z,99328.46
2017-11-23T03:45:15.524Z,99322.92
2017-11-23T03:46:17.998Z,99333.34
2017-11-23T03:47:20.459Z,99326.64
2017-11-23T03:48:22.931Z,99325.67
2017-11-23T03:49:25.408Z,99320.75
2017-11-23T03:50:27.864Z,99318.58
2017-11-23T03:51:30.320Z,99315.83
2017-11-23T03:52:32.780Z,99307.59
2017-11-23T03:53:35.240Z,99313.08
2017-11-23T03:54:37.745Z,99311.89
2017-11-23T03:55:40.208Z,99311.48
2017-11-23T03:56:42.695Z,99314.63
2017-11-23T03:57:45.192Z,99307.94
2017-11-23T03:58:47.671Z,99303.42
2017-11-23T03:59:50.163Z,99305.38
2017-11-23T04:00:52.637Z,99310.87
2017-11-23T04:01:55.112Z,99306.92
2017-11-23T04:02:57.581Z,99312.23
2017-11-23T04:04:00.054Z,99308.88
2017-11-23T04:05:02.532Z,99305.30
2017-11-23T04:06:05.001Z,99300.77
2017-11-23T04:07:07.510Z,99308.05
2017-11-23T04:08:09.987Z,99299.41
2017-11-23T04:09:12.449Z,99309.02
2017-11-23T04:10:14.938Z,99307.64
2017-11-23T04:11:17.407Z,99306.45
2017-11-23T04:12:19.869Z,99311.14
2017-11-23T04:13:22.331Z,99308.39
2017-11-23T04:14:24.788Z,99318.41
2017-11-23T04:15:27.281Z,99324.48
2017-11-23T04:16:29.760Z,99346.86
2017-11-23T04:17:32.223Z,99347.44
2017-11-23T04:18:34.711Z,99368.83
2017-11-23T04:19:37.171Z,99373.36
2017-11-23T04:20:39.670Z,99387.31
2017-11-23T04:21:42.155Z,99389.48
2017-11-23T04:22:44.617Z,99387.97
2017-11-23T04:23:47.094Z,99376.98
2017-11-23T04:24:49.556Z,99367.36
2017-11-23T04:25:52.043Z,99365.41
2017-11-23T04:26:54.534Z,99364.22
2017-11-23T04:27:57.077Z,99363.24
2017-11-23T04:28:59.558Z,99371.31
2017-11-23T04:30:02.403Z,99368.73
2017-11-23T04:31:04.883Z,99353.63
2017-11-23T04:32:07.356Z,99352.66
2017-11-23T04:33:09.820Z,99353.45
2017-11-23T04:34:12.276Z,99354.42
2017-11-23T04:35:14.736Z,99345.20
2017-11-23T04:36:17.249Z,99352.48
2017-11-23T04:37:19.727Z,99347.78
2017-11-23T04:38:22.201Z,99349.95
2017-11-23T04:39:24.657Z,99351.15
2017-11-23T04:40:27.130Z,99344.11
2017-11-23T04:41:29.635Z,99343.53
2017-11-23T04:42:33.472Z,99348.84
2017-11-23T04:43:35.953Z,99346.72
2017-11-23T04:44:38.410Z,99338.08
2017-11-23T04:45:40.869Z,99334.18
2017-11-23T04:46:43.369Z,99327.53
2017-11-23T04:47:45.858Z,99329.13
2017-11-23T04:48:48.326Z,99329.75
2017-11-23T04:49:50.791Z,99329.75
2017-11-23T04:50:53.872Z,99326.78
2017-11-23T04:51:56.372Z,99326.38
2017-11-23T04:52:58.860Z,99318.94
2017-11-23T04:54:01.416Z,99316.19
2017-11-23T04:55:04.744Z,99322.08
2017-11-23T04:56:07.651Z,99323.45
2017-11-23T04:57:10.167Z,99327.58
2017-11-23T04:58:13.709Z,99314.81
2017-11-23T04:59:16.192Z,99301.25
2017-11-23T05:00:18.672Z,99308.70
2017-11-23T05:01:21.140Z,99307.33
2017-11-23T05:02:23.680Z,99314.95
2017-11-23T05:03:26.154Z,99321.81
2017-11-23T05:04:28.612Z,99310.03
2017-11-23T05:05:31.082Z,99307.86
2017-11-23T05:06:33.569Z,99305.50
2017-11-23T05:07:36.059Z,99301.56
2017-11-23T05:08:38.507Z,99296.64
2017-11-23T05:09:41.064Z,99296.82
2017-11-23T05:10:43.539Z,99293.67
2017-11-23T05:11:46.019Z,99292.30
2017-11-23T05:12:48.504Z,99291.11
2017-11-23T05:13:50.983Z,99293.45
2017-11-23T05:14:53.457Z,99294.03
2017-11-23T05:15:55.912Z,99294.61
2017-11-23T05:16:58.368Z,99293.23
2017-11-23T05:18:00.874Z,99288.13
2017-11-23T05:19:03.342Z,99292.66
2017-11-23T05:20:05.818Z,99295.80
2017-11-23T05:21:08.392Z,99295.80
2017-11-23T05:22:10.866Z,99296.38
2017-11-23T05:23:13.478Z,99309.54
2017-11-23T05:24:18.335Z,99306.39
2017-11-23T05:25:20.834Z,99318.75
2017-11-23T05:26:23.308Z,99316.98
2017-11-23T05:27:25.790Z,99321.91
2017-11-23T05:28:28.292Z,99326.59
2017-11-23T05:29:30.752Z,99331.12
2017-11-23T05:30:33.208Z,99324.42
2017-11-23T05:31:35.679Z,99333.64
2017-11-23T05:32:38.159Z,99322.48
2017-11-23T05:33:40.667Z,99321.11
2017-11-23T05:34:43.127Z,99321.33
2017-11-23T05:35:45.579Z,99313.26
2017-11-23T05:36:48.055Z,99326.42
2017-11-23T05:37:50.520Z,99324.25
2017-11-23T05:38:53.009Z,99314.06
2017-11-23T05:39:55.481Z,99320.92
2017-11-23T05:40:57.954Z,99323.09
2017-11-23T05:42:00.423Z,99319.16
2017-11-23T05:43:02.884Z,99317.55
2017-11-23T05:44:05.368Z,99321.28
2017-11-23T05:45:07.824Z,99312.64
2017-11-23T05:46:10.293Z,99315.56
2017-11-23T05:47:12.771Z,99306.74
2017-11-23T05:48:15.247Z,99303.06
2017-11-23T05:49:17.767Z,99308.39
2017-11-23T05:50:20.241Z,99304.89
2017-11-23T05:51:22.708Z,99308.03
2017-11-23T05:52:25.173Z,99303.91
2017-11-23T05:53:27.651Z,99304.13
2017-11-23T05:54:30.148Z,99292.52
2017-11-23T05:55:32.608Z,99300.37
2017-11-23T05:56:35.081Z,99303.69
2017-11-23T05:57:37.535Z,99328.20
2017-11-23T05:58:40.010Z,99327.00
2017-11-23T05:59:42.529Z,99320.30
2017-11-23T06:00:44.998Z,99335.41
2017-11-23T06:01:47.455Z,99323.01
2017-11-23T06:02:49.912Z,99326.88
2017-11-23T06:03:52.420Z,99320.58
2017-11-23T06:04:54.917Z,99309.77
2017-11-23T06:05:57.384Z,99318.19
2017-11-23T06:06:59.850Z,99313.84
2017-11-23T06:08:02.324Z,99314.02
2017-11-23T06:09:04.788Z,99307.73
2017-11-23T06:10:07.272Z,99303.20
2017-11-23T06:11:09.745Z,99306.13
2017-11-23T06:12:12.209Z,99301.79
2017-11-23T06:13:14.704Z,99295.09
2017-11-23T06:14:17.183Z,99294.70
2017-11-23T06:15:19.657Z,99291.55
2017-11-23T06:16:22.121Z,99287.44
2017-11-23T06:17:24.601Z,99287.03
2017-11-23T06:18:27.078Z,99290.36
2017-11-23T06:19:29.558Z,99278.17
2017-11-23T06:20:32.071Z,99280.34
2017-11-23T06:21:34.611Z,99276.40
2017-11-23T06:22:37.181Z,99281.49
2017-11-23T06:23:39.644Z,99274.80
2017-11-23T06:24:42.127Z,99271.48
2017-11-23T06:25:44.646Z,99270.28
2017-11-23T06:26:47.123Z,99264.57
2017-11-23T06:27:49.599Z,99276.93
2017-11-23T06:28:52.061Z,99272.81
2017-11-23T06:29:54.547Z,99280.08
2017-11-23T06:30:57.050Z,99290.66
2017-11-23T06:31:59.525Z,99296.55
2017-11-23T06:33:02.026Z,99299.30
2017-11-23T06:34:04.500Z,99288.72
2017-11-23T06:35:07.064Z,99292.44
2017-11-23T06:36:09.562Z,99281.62
2017-11-23T06:37:12.020Z,99284.37
2017-11-23T06:38:14.476Z,99283.00
2017-11-23T06:39:16.955Z,99277.11
2017-11-23T06:40:19.422Z,99295.94
2017-11-23T06:41:21.935Z,99290.62
2017-11-23T06:42:24.406Z,99304.34
2017-11-23T06:43:27.073Z,99300.23
2017-11-23T06:44:29.551Z,99303.55
2017-11-23T06:45:32.060Z,99291.59
2017-11-23T06:46:34.596Z,99293.19
2017-11-23T06:47:37.072Z,99291.64
2017-11-23T06:48:39.542Z,99297.93
2017-11-23T06:49:42.108Z,99303.25
2017-11-23T06:50:44.568Z,99293.67
2017-11-23T06:51:47.063Z,99283.27
2017-11-23T06:52:49.560Z,99294.66
2017-11-23T06:53:52.038Z,99306.04
2017-11-23T06:54:54.524Z,99303.30
2017-11-23T06:55:57.048Z,99297.40
2017-11-23T06:56:59.547Z,99309.36
2017-11-23T06:58:02.066Z,99299.34
2017-11-23T06:59:04.542Z,99302.31
2017-11-23T07:00:07.022Z,99316.23
2017-11-23T07:01:09.485Z,99318.00
2017-11-23T07:02:12.025Z,99314.86
2017-11-23T07:03:14.556Z,99311.53
2017-11-23T07:04:17.031Z,99316.05
2017-11-23T07:05:19.510Z,99313.31
2017-11-23T07:06:21.982Z,99319.20
2017-11-23T07:07:24.507Z,99326.06
2017-11-23T07:08:27.007Z,99316.80
2017-11-23T07:09:29.464Z,99315.25
2017-11-23T07:10:31.932Z,99324.07
2017-11-23T07:11:34.397Z,99328.94
2017-11-23T07:12:36.885Z,99333.64
2017-11-23T07:13:39.341Z,99333.23
2017-11-23T07:14:41.800Z,99323.41
2017-11-23T07:15:44.341Z,99333.02
2017-11-23T07:16:46.802Z,99337.71
2017-11-23T07:17:55.050Z,99346.53
2017-11-23T07:18:57.514Z,99336.52
2017-11-23T07:20:00.010Z,99335.53
2017-11-23T07:21:02.504Z,99346.13
2017-11-23T07:22:04.983Z,99343.92
2017-11-23T07:23:07.446Z,99349.98
2017-11-23T07:24:09.922Z,99341.35
2017-11-23T07:25:12.413Z,99345.87
2017-11-23T07:26:14.869Z,99337.23
2017-11-23T07:27:17.330Z,99348.39
2017-11-23T07:28:19.791Z,99344.27
2017-11-23T07:29:22.263Z,99343.88
2017-11-23T07:30:24.743Z,99335.81
2017-11-23T07:31:27.211Z,99343.88
2017-11-23T07:32:29.689Z,99342.11
2017-11-23T07:33:32.144Z,99333.06
2017-11-23T07:34:34.602Z,99336.39
2017-11-23T07:35:37.100Z,99344.05
2017-11-23T07:36:39.655Z,99334.22
2017-11-23T07:37:42.115Z,99337.53
2017-11-23T07:38:44.597Z,99340.68
2017-11-23T07:39:47.090Z,99345.78
2017-11-23T07:40:49.576Z,99335.36
2017-11-23T07:41:52.032Z,99336.34
2017-11-23T07:42:54.510Z,99341.03
2017-11-23T07:43:56.964Z,99342.01
2017-11-23T07:44:59.438Z,99336.11
2017-11-23T07:46:01.918Z,99339.61
2017-11-23T07:47:04.377Z,99339.44
2017-11-23T07:48:06.843Z,99338.06
2017-11-23T07:49:09.332Z,99336.52
2017-11-23T07:50:11.912Z,99340.86
2017-11-23T07:51:14.399Z,99337.14
2017-11-23T07:52:16.869Z,99331.64
2017-11-23T07:53:19.320Z,99339.84
2017-11-23T07:54:21.798Z,99323.94
2017-11-23T07:55:24.285Z,99328.63
2017-11-23T07:56:26.779Z,99325.55
2017-11-23T07:57:29.264Z,99330.50
2017-11-23T07:58:31.751Z,99332.39
2017-11-23T07:59:34.249Z,99316.17
2017-11-23T08:00:36.712Z,99323.95
2017-11-23T08:01:39.182Z,99323.34
2017-11-23T08:02:41.659Z,99321.39
2017-11-23T08:03:44.593Z,99317.80
2017-11-23T08:04:47.070Z,99318.70
2017-11-23T08:05:49.552Z,99327.63
2017-11-23T08:06:52.046Z,99320.48
2017-11-23T08:07:54.514Z,99327.06
2017-11-23T08:08:56.972Z,99323.81
2017-11-23T08:09:59.433Z,99324.25
2017-11-23T08:11:01.888Z,99329.80
2017-11-23T08:12:04.347Z,99332.84
2017-11-23T08:13:06.830Z,99330.16
2017-11-23T08:14:09.284Z,99342.02
2017-11-23T08:15:11.744Z,99338.38
2017-11-23T08:16:14.237Z,99336.05
2017-11-23T08:17:16.719Z,99336.38
2017-11-23T08:18:19.190Z,99347.75
2017-11-23T08:19:21.674Z,99351.81
2017-11-23T08:20:24.131Z,99339.88
2017-11-23T08:21:26.589Z,99338.78
2017-11-23T08:22:29.047Z,99332.33
2017-11-23T08:23:31.513Z,99341.12
2017-11-23T08:24:33.982Z,99336.50
2017-11-23T08:25:36.470Z,99342.50
2017-11-23T08:26:38.949Z,99336.77
2017-11-23T08:27:41.424Z,99342.64
2017-11-23T08:28:43.910Z,99347.27
2017-11-23T08:29:46.389Z,99348.19
2017-11-23T08:30:48.863Z,99354.98
2017-11-23T08:31:51.320Z,99350.38
2017-11-23T08:32:53.789Z,99347.41
2017-11-23T08:33:56.268Z,99356.48
2017-11-23T08:34:58.732Z,99360.44
2017-11-23T08:36:01.207Z,99358.09
2017-11-23T08:37:03.665Z,99351.52
2017-11-23T08:38:06.163Z,99367.45
2017-11-23T08:39:08.634Z,99362.94
2017-11-23T08:40:11.145Z,99366.08
2017-11-23T08:41:13.620Z,99365.97
2017-11-23T08:42:16.104Z,99366.03
2017-11-23T08:43:18.580Z,99370.14
2017-11-23T08:44:21.057Z,99362.14
2017-11-23T08:45:23.549Z,99374.98
2017-11-23T08:46:26.029Z,99360.32
2017-11-23T08:47:28.469Z,99367.17
2017-11-23T08:48:30.901Z,99370.14
2017-11-23T08:49:33.341Z,99368.37
2017-11-23T08:50:35.813Z,99360.55
2017-11-23T08:51:38.253Z,99368.36
2017-11-23T08:52:44.079Z,99370.15
2017-11-23T08:53:46.539Z,99363.13
2017-11-23T08:54:55.042Z,99367.75
2017-11-23T08:55:57.509Z,99370.49
2017-11-23T08:57:00.830Z,99366.21
2017-11-23T08:58:03.280Z,99361.47
2017-11-23T08:59:05.729Z,99368.72
2017-11-23T09:00:08.175Z,99362.78
2017-11-23T09:01:10.649Z,99351.66
2017-11-23T09:02:13.110Z,99366.27
2017-11-23T09:03:15.577Z,99361.39
2017-11-23T09:04:18.018Z,99358.26
2017-11-23T09:05:20.469Z,99356.35
2017-11-23T09:06:22.965Z,99362.86
2017-11-23T09:07:25.428Z,99357.55
2017-11-23T09:08:27.885Z,99352.90
2017-11-23T09:09:30.363Z,99360.32
2017-11-23T09:10:32.845Z,99364.48
2017-11-23T09:11:35.344Z,99357.74
2017-11-23T09:12:39.618Z,99360.25
2017-11-23T09:13:42.174Z,99360.22
2017-11-23T09:14:44.618Z,99356.84
2017-11-23T09:15:47.157Z,99357.75
2017-11-23T09:16:49.622Z,99364.94
2017-11-23T09:17:52.080Z,99361.94
2017-11-23T09:18:54.559Z,99360.45
2017-11-23T09:19:57.017Z,99364.27
2017-11-23T09:20:59.489Z,99357.86
2017-11-23T09:22:02.010Z,99368.31
2017-11-23T09:23:04.469Z,99363.45
2017-11-23T09:24:06.954Z,99361.51
2017-11-23T09:25:09.407Z,99364.68
2017-11-23T09:26:11.900Z,99368.80
2017-11-23T09:27:14.399Z,99366.67
2017-11-23T09:28:16.875Z,99356.27
2017-11-23T09:29:19.341Z,99358.77
2017-11-23T09:30:21.804Z,99354.25
2017-11-23T09:31:24.273Z,99363.71
2017-11-23T09:32:26.756Z,99361.51
2017-11-23T09:33:29.225Z,99365.22
2017-11-23T09:34:31.688Z,99368.54
2017-11-23T09:35:34.154Z,99370.66
2017-11-23T09:36:36.618Z,99371.63
2017-11-23T09:37:39.122Z,99364.38
2017-11-23T09:38:41.592Z,99373.58
2017-11-23T09:39:44.057Z,99370.61
2017-11-23T09:40:46.524Z,99373.92
2017-11-23T09:41:49.002Z,99376.67
2017-11-23T09:42:51.490Z,99374.89
2017-11-23T09:43:53.975Z,99367.81
2017-11-23T09:44:56.459Z,99381.53
2017-11-23T09:45:58.950Z,99382.10
2017-11-23T09:47:01.412Z,99380.73
2017-11-23T09:48:03.908Z,99367.18
2017-11-23T09:49:06.422Z,99365.23
2017-11-23T09:50:08.904Z,99374.44
2017-11-23T09:51:11.361Z,99386.62
2017-11-23T09:52:13.816Z,99388.56
2017-11-23T09:53:16.306Z,99385.81
2017-11-23T09:54:18.769Z,99391.70
2017-11-23T09:55:21.237Z,99392.67
2017-11-23T09:56:23.709Z,99381.13
2017-11-23T09:57:26.199Z,99401.31
2017-11-23T09:58:28.694Z,99384.84
2017-11-23T09:59:31.178Z,99389.76
2017-11-23T10:00:33.632Z,99398.79
2017-11-23T10:01:36.105Z,99404.85
2017-11-23T10:02:38.564Z,99395.88
2017-11-23T10:03:41.052Z,99391.41
2017-11-23T10:04:43.513Z,99396.47
2017-11-23T10:05:45.983Z,99393.66
2017-11-23T10:06:48.458Z,99397.66
2017-11-23T10:07:50.988Z,99391.87
2017-11-23T10:08:53.530Z,99405.95
2017-11-23T10:09:56.014Z,99404.73
2017-11-23T10:10:58.522Z,99405.12
2017-11-23T10:12:00.986Z,99400.89
2017-11-23T10:13:03.464Z,99400.66
2017-11-23T10:14:11.633Z,99403.69
2017-11-23T10:15:14.101Z,99403.05
2017-11-23T10:16:16.560Z,99406.52
2017-11-23T10:17:19.020Z,99406.97
2017-11-23T10:18:21.481Z,99400.88
2017-11-23T10:19:24.003Z,99405.41
2017-11-23T10:20:26.470Z,99407.55
2017-11-23T10:21:28.938Z,99418.81
2017-11-23T10:22:31.415Z,99415.14
2017-11-23T10:23:33.900Z,99408.73
2017-11-23T10:24:36.396Z,99432.33
2017-11-23T10:25:38.869Z,99408.78
2017-11-23T10:26:41.347Z,99409.62
2017-11-23T10:27:43.812Z,99416.55
2017-11-23T10:28:46.268Z,99416.77
2017-11-23T10:29:48.744Z,99422.09
2017-11-23T10:30:51.216Z,99419.13
2017-11-23T10:31:53.680Z,99423.11
2017-11-23T10:32:56.135Z,99424.59
2017-11-23T10:33:58.592Z,99416.16
2017-11-23T10:35:01.099Z,99425.80
2017-11-23T10:36:03.556Z,99423.66
2017-11-23T10:37:12.468Z,99435.65
2017-11-23T10:38:14.929Z,99426.98
2017-11-23T10:39:17.407Z,99433.91
2017-11-23T10:40:19.926Z,99437.68
2017-11-23T10:41:22.597Z,99434.53
2017-11-23T10:42:25.075Z,99441.81
2017-11-23T10:43:27.554Z,99443.77
2017-11-23T10:44:30.016Z,99441.05
2017-11-23T10:45:32.652Z,99445.44
2017-11-23T10:46:35.125Z,99445.08
2017-11-23T10:47:37.605Z,99434.86
2017-11-23T10:48:40.886Z,99435.92
2017-11-23T10:49:43.360Z,99440.78
2017-11-23T10:50:45.863Z,99445.71
2017-11-23T10:51:48.331Z,99448.40
2017-11-23T10:52:50.791Z,99443.25
2017-11-23T10:53:53.260Z,99446.51
2017-11-23T10:54:55.737Z,99441.53
2017-11-23T10:55:58.254Z,99444.47
2017-11-23T10:57:00.814Z,99434.84
2017-11-23T10:58:03.280Z,99433.78
2017-11-23T10:59:05.741Z,99439.27
2017-11-23T11:00:08.232Z,99437.99
2017-11-23T11:01:10.729Z,99436.84
2017-11-23T11:02:13.213Z,99445.42
2017-11-23T11:03:15.696Z,99445.42
2017-11-23T11:04:18.167Z,99443.00
2017-11-23T11:05:20.628Z,99448.92
2017-11-23T11:06:23.138Z,99451.09
2017-11-23T11:07:25.628Z,99450.91
2017-11-23T11:08:28.093Z,99452.57
2017-11-23T11:09:30.562Z,99455.42
2017-11-23T11:10:33.026Z,99450.17
2017-11-23T11:11:35.526Z,99453.64
2017-11-23T11:12:37.988Z,99459.52
2017-11-23T11:13:40.451Z,99461.38
2017-11-23T11:14:42.931Z,99451.59
2017-11-23T11:15:45.462Z,99459.96
2017-11-23T11:16:47.972Z,99454.15
2017-11-23T11:17:50.454Z,99449.91
2017-11-23T11:18:52.931Z,99455.22
2017-11-23T11:19:55.400Z,99456.39
2017-11-23T11:20:57.861Z,99464.30
2017-11-23T11:22:00.417Z,99470.59
2017-11-23T11:23:02.875Z,99466.05
2017-11-23T11:24:05.353Z,99466.45
2017-11-23T11:25:07.889Z,99469.80
2017-11-23T11:26:10.374Z,99472.19
2017-11-23T11:27:12.880Z,99471.12
2017-11-23T11:28:15.367Z,99474.58
2017-11-23T11:29:17.838Z,99475.95
2017-11-23T11:30:20.318Z,99471.20
2017-11-23T11:31:22.780Z,99476.73
2017-11-23T11:32:25.297Z,99482.86
2017-11-23T11:33:27.756Z,99478.42
2017-11-23T11:34:30.236Z,99474.86
2017-11-23T11:35:32.751Z,99473.98
2017-11-23T11:36:35.220Z,99477.23
2017-11-23T11:37:37.701Z,99478.07
2017-11-23T11:38:40.164Z,99479.58
2017-11-23T11:39:42.643Z,99476.55
2017-11-23T11:40:45.133Z,99482.80
2017-11-23T11:41:47.596Z,99482.13
2017-11-23T11:42:50.077Z,99477.28
2017-11-23T11:43:52.564Z,99480.25
2017-11-23T11:44:55.053Z,99478.62
2017-11-23T11:45:57.528Z,99486.36
2017-11-23T11:47:00.007Z,99482.73
2017-11-23T11:48:02.488Z,99487.11
2017-11-23T11:49:04.949Z,99489.16
2017-11-23T11:50:07.441Z,99487.59
2017-11-23T11:51:10.047Z,99486.48
2017-11-23T11:52:12.512Z,99487.81
2017-11-23T11:53:15.006Z,99492.51
2017-11-23T11:54:17.469Z,99493.28
2017-11-23T11:55:20.027Z,99492.64
2017-11-23T11:56:22.621Z,99486.84
2017-11-23T11:57:25.089Z,99488.93
2017-11-23T11:58:27.576Z,99493.59
2017-11-23T11:59:30.053Z,99493.53
2017-11-23T12:00:32.521Z,99501.53
2017-11-23T12:01:34.993Z,99496.69
2017-11-23T12:02:37.462Z,99507.85
2017-11-23T12:03:40.051Z,99497.12
2017-11-23T12:04:42.513Z,99497.82
2017-11-23T12:05:44.991Z,99491.84
2017-11-23T12:06:47.459Z,99492.58
2017-11-23T12:07:49.929Z,99502.75
2017-11-23T12:08:52.439Z,99500.47
2017-11-23T12:09:54.906Z,99493.30
2017-11-23T12:10:57.369Z,99505.64
2017-11-23T12:11:59.838Z,99499.26
2017-11-23T12:13:02.295Z,99500.36
2017-11-23T12:14:16.456Z,99501.64
2017-11-23T12:15:30.722Z,99510.82
2017-11-23T12:18:24.024Z,99529.30